createdAt,value
2023-02-17T00:00:13.642Z,11.86
2023-02-17T00:02:45.118Z,11.87
2023-02-17T00:05:13.852Z,11.86
2023-02-17T00:07:42.311Z,11.83
2023-02-17T00:10:18.626Z,11.86
2023-02-17T00:12:51.938Z,11.84
2023-02-17T00:15:22.415Z,11.83
2023-02-17T00:17:51.086Z,11.87
2023-02-17T00:20:21.188Z,11.85
2023-02-17T00:22:49.588Z,11.81
2023-02-17T00:25:20.301Z,11.82
2023-02-17T00:27:51.500Z,11.81
2023-02-17T00:30:22.326Z,11.86
2023-02-17T00:32:51.783Z,11.84
2023-02-17T00:35:20.568Z,11.88
2023-02-17T00:37:48.944Z,11.84
2023-02-17T00:40:19.764Z,11.84
2023-02-17T00:42:50.634Z,11.86
2023-02-17T00:45:19.877Z,11.86
2023-02-17T00:47:48.278Z,11.82
2023-02-17T00:50:17.124Z,11.81
2023-02-17T00:52:46.601Z,11.84
2023-02-17T00:55:16.197Z,11.88
2023-02-17T00:57:44.673Z,11.84
2023-02-17T01:00:16.565Z,11.86
2023-02-17T01:02:44.829Z,11.81
2023-02-17T01:05:15.624Z,11.83
2023-02-17T01:07:46.373Z,11.83
2023-02-17T01:10:15.388Z,11.81
2023-02-17T01:12:44.018Z,11.83
2023-02-17T01:15:15.145Z,11.79
2023-02-17T01:17:44.761Z,11.80
2023-02-17T01:20:13.742Z,11.76
2023-02-17T01:22:42.457Z,11.74
2023-02-17T01:25:13.087Z,11.72
2023-02-17T01:27:41.712Z,11.79
2023-02-17T01:30:12.583Z,11.79
2023-02-17T01:32:43.553Z,11.78
2023-02-17T01:35:12.617Z,11.82
2023-02-17T01:37:42.508Z,11.81
2023-02-17T01:40:14.578Z,11.81
2023-02-17T01:42:43.748Z,11.83
2023-02-17T01:45:33.401Z,11.85
2023-02-17T01:48:07.755Z,11.89
2023-02-17T01:50:41.397Z,11.91
2023-02-17T01:53:14.013Z,11.88
2023-02-17T01:55:46.181Z,11.95
2023-02-17T01:58:19.141Z,11.95
2023-02-17T02:00:49.379Z,11.97
2023-02-17T02:03:19.615Z,11.95
2023-02-17T02:05:50.760Z,12.03
2023-02-17T02:08:21.486Z,12.06
2023-02-17T02:10:49.823Z,12.04
2023-02-17T02:13:18.511Z,12.09
2023-02-17T02:15:58.366Z,12.10
2023-02-17T02:18:50.256Z,12.09
2023-02-17T02:21:53.375Z,12.09
2023-02-17T02:24:39.232Z,12.12
2023-02-17T02:27:42.562Z,12.06
2023-02-17T02:30:27.700Z,12.11
2023-02-17T02:33:09.542Z,12.11
2023-02-17T02:35:47.633Z,12.09
2023-02-17T02:38:24.062Z,12.11
2023-02-17T02:40:59.396Z,12.09
2023-02-17T02:43:29.218Z,12.08
2023-02-17T02:45:58.846Z,12.09
2023-02-17T02:48:31.151Z,12.07
2023-02-17T02:51:19.882Z,12.05
2023-02-17T02:54:18.049Z,12.02
2023-02-17T02:57:09.771Z,12.01
2023-02-17T02:59:50.243Z,12.02
2023-02-17T03:02:31.665Z,11.99
2023-02-17T03:05:09.587Z,12.02
2023-02-17T03:07:44.160Z,12.03
2023-02-17T03:10:12.987Z,12.07
2023-02-17T03:12:42.698Z,12.09
2023-02-17T03:15:17.545Z,12.09
2023-02-17T03:17:47.052Z,12.09
2023-02-17T03:20:17.853Z,12.10
2023-02-17T03:22:49.932Z,12.09
2023-02-17T03:25:18.528Z,12.02
2023-02-17T03:27:46.883Z,12.00
2023-02-17T03:30:15.782Z,12.04
2023-02-17T03:32:50.551Z,12.05
2023-02-17T03:35:20.824Z,12.05
2023-02-17T03:37:49.128Z,12.05
2023-02-17T03:40:18.786Z,12.05
2023-02-17T03:42:47.740Z,12.08
2023-02-17T03:45:17.598Z,12.06
2023-02-17T03:47:46.430Z,12.03
2023-02-17T03:50:14.886Z,12.01
2023-02-17T03:52:45.005Z,11.92
2023-02-17T03:55:14.716Z,11.88
2023-02-17T03:57:45.229Z,11.81
2023-02-17T04:00:21.913Z,11.73
2023-02-17T04:02:57.247Z,11.67
2023-02-17T04:05:26.414Z,11.60
2023-02-17T04:07:56.836Z,11.55
2023-02-17T04:10:28.174Z,11.49
2023-02-17T04:12:57.282Z,11.40
2023-02-17T04:15:25.937Z,11.36
2023-02-17T04:17:54.525Z,11.35
2023-02-17T04:20:23.311Z,11.34
2023-02-17T04:22:52.785Z,11.31
2023-02-17T04:25:23.859Z,11.30
2023-02-17T04:27:52.798Z,11.28
2023-02-17T04:30:23.798Z,11.24
2023-02-17T04:32:52.391Z,11.23
2023-02-17T04:35:20.757Z,11.25
2023-02-17T04:37:49.286Z,11.24
2023-02-17T04:40:19.417Z,11.23
2023-02-17T04:42:51.697Z,11.21
2023-02-17T04:45:22.584Z,11.19
2023-02-17T04:47:57.362Z,11.16
2023-02-17T04:50:25.987Z,11.10
2023-02-17T04:52:54.699Z,11.09
2023-02-17T04:55:25.305Z,11.07
2023-02-17T04:57:56.369Z,11.07
2023-02-17T05:00:25.403Z,11.05
2023-02-17T05:02:53.970Z,11.04
2023-02-17T05:05:22.364Z,11.05
2023-02-17T05:07:52.004Z,11.07
2023-02-17T05:10:23.711Z,11.07
2023-02-17T05:12:52.610Z,11.08
2023-02-17T05:15:23.789Z,11.12
2023-02-17T05:17:52.307Z,11.14
2023-02-17T05:20:21.410Z,11.16
2023-02-17T05:22:52.215Z,11.17
2023-02-17T05:25:20.701Z,11.17
2023-02-17T05:27:50.225Z,11.19
2023-02-17T05:30:26.365Z,11.16
2023-02-17T05:32:56.777Z,11.15
2023-02-17T05:35:25.803Z,11.14
2023-02-17T05:37:57.140Z,11.13
2023-02-17T05:40:25.739Z,11.09
2023-02-17T05:42:54.315Z,11.12
2023-02-17T05:45:25.332Z,11.12
2023-02-17T05:47:54.357Z,11.09
2023-02-17T05:50:23.832Z,11.07
2023-02-17T05:52:52.405Z,11.10
2023-02-17T05:55:22.492Z,11.09
2023-02-17T05:57:52.485Z,11.10
2023-02-17T06:00:21.215Z,11.10
2023-02-17T06:02:51.703Z,11.09
2023-02-17T06:05:20.352Z,11.07
2023-02-17T06:07:49.801Z,11.01
2023-02-17T06:10:18.509Z,10.97
2023-02-17T06:12:46.911Z,10.99
2023-02-17T06:15:15.893Z,10.99
2023-02-17T06:17:45.592Z,11.05
2023-02-17T06:20:17.222Z,11.09
2023-02-17T06:22:45.590Z,11.10
2023-02-17T06:25:15.333Z,11.19
2023-02-17T06:27:44.570Z,11.22
2023-02-17T06:30:15.077Z,11.29
2023-02-17T06:32:44.986Z,11.32
2023-02-17T06:35:13.580Z,11.31
2023-02-17T06:37:43.958Z,11.31
2023-02-17T06:40:14.063Z,11.24
2023-02-17T06:42:42.549Z,11.11
2023-02-17T06:45:11.535Z,10.84
2023-02-17T06:47:40.054Z,10.72
2023-02-17T06:50:10.736Z,10.69
2023-02-17T06:52:46.552Z,10.66
2023-02-17T06:55:19.062Z,10.62
2023-02-17T06:57:48.422Z,10.61
2023-02-17T07:00:18.384Z,10.57
2023-02-17T07:02:47.797Z,10.53
2023-02-17T07:05:16.772Z,10.52
2023-02-17T07:08:06.815Z,10.52
2023-02-17T07:10:39.030Z,10.50
2023-02-17T07:13:07.761Z,10.48
2023-02-17T07:15:36.821Z,10.47
2023-02-17T07:18:05.509Z,10.54
2023-02-17T07:20:34.112Z,10.55
2023-02-17T07:23:04.629Z,10.55
2023-02-17T07:25:33.507Z,10.57
2023-02-17T07:28:02.070Z,10.62
2023-02-17T07:30:30.782Z,10.53
2023-02-17T07:32:59.494Z,10.49
2023-02-17T07:35:28.002Z,10.44
2023-02-17T07:37:59.578Z,10.42
2023-02-17T07:40:30.356Z,10.40
2023-02-17T07:43:00.881Z,10.38
2023-02-17T07:45:29.924Z,10.31
2023-02-17T07:47:58.574Z,10.27
2023-02-17T07:50:27.615Z,10.27
2023-02-17T07:52:56.966Z,10.24
2023-02-17T07:55:26.047Z,10.19
2023-02-17T07:57:56.216Z,10.21
2023-02-17T08:00:24.878Z,10.17
2023-02-17T08:02:53.623Z,10.21
2023-02-17T08:05:24.498Z,10.22
2023-02-17T08:08:13.352Z,10.24
2023-02-17T08:11:00.542Z,10.21
2023-02-17T08:13:30.816Z,10.17
2023-02-17T08:16:00.816Z,10.15
2023-02-17T08:18:34.390Z,10.16
2023-02-17T08:21:05.276Z,10.23
2023-02-17T08:23:41.267Z,10.23
2023-02-17T08:26:09.873Z,10.21
2023-02-17T08:28:39.882Z,10.23
2023-02-17T08:31:16.289Z,10.25
2023-02-17T08:33:45.487Z,10.29
2023-02-17T08:36:15.802Z,10.29
2023-02-17T08:38:48.935Z,10.29
2023-02-17T08:41:20.190Z,10.32
2023-02-17T08:43:55.039Z,10.32
2023-02-17T08:46:24.664Z,10.33
2023-02-17T08:48:53.350Z,10.29
2023-02-17T08:51:26.418Z,10.34
2023-02-17T08:53:57.086Z,10.35
2023-02-17T08:56:28.108Z,10.36
2023-02-17T08:58:58.466Z,10.41
2023-02-17T09:01:28.196Z,10.42
2023-02-17T09:03:59.058Z,10.40
2023-02-17T09:06:34.882Z,10.46
2023-02-17T09:09:04.102Z,10.42
2023-02-17T09:11:32.594Z,10.43
2023-02-17T09:14:02.980Z,10.41
2023-02-17T09:16:31.579Z,10.40
2023-02-17T09:19:00.557Z,10.39
2023-02-17T09:21:29.142Z,10.39
2023-02-17T09:23:58.780Z,10.41
2023-02-17T09:26:27.506Z,10.41
2023-02-17T09:28:58.179Z,10.42
2023-02-17T09:31:29.416Z,10.51
2023-02-17T09:33:58.384Z,10.49
2023-02-17T09:36:30.204Z,10.52
2023-02-17T09:38:59.217Z,10.63
2023-02-17T09:41:33.698Z,10.68
2023-02-17T09:44:03.205Z,10.71
2023-02-17T09:46:38.648Z,10.76
2023-02-17T09:49:13.933Z,10.77
2023-02-17T09:51:47.787Z,10.79
2023-02-17T09:54:21.457Z,10.83
2023-02-17T09:56:55.289Z,10.87
2023-02-17T09:59:29.636Z,10.87
2023-02-17T10:02:02.055Z,10.91
2023-02-17T10:04:37.401Z,11.01
2023-02-17T10:07:13.632Z,11.05
2023-02-17T10:09:50.474Z,11.09
2023-02-17T10:12:25.327Z,11.07
2023-02-17T10:14:57.944Z,11.06
2023-02-17T10:17:38.098Z,11.07
2023-02-17T10:20:10.889Z,11.11
2023-02-17T10:22:45.499Z,11.10
2023-02-17T10:25:17.936Z,11.13
2023-02-17T10:27:53.891Z,11.21
2023-02-17T10:30:32.572Z,11.22
2023-02-17T10:33:13.845Z,11.23
2023-02-17T10:35:53.470Z,11.26
2023-02-17T10:38:39.518Z,11.31
2023-02-17T10:41:14.175Z,11.32
2023-02-17T10:43:45.138Z,11.36
2023-02-17T10:46:17.533Z,11.35
2023-02-17T10:48:50.931Z,11.35
2023-02-17T10:51:24.108Z,11.33
2023-02-17T10:53:56.863Z,11.22
2023-02-17T10:56:30.543Z,11.21
2023-02-17T10:59:07.059Z,11.22
2023-02-17T11:01:36.129Z,11.15
2023-02-17T11:04:08.263Z,11.07
2023-02-17T11:06:44.643Z,10.97
2023-02-17T11:09:22.193Z,10.90
2023-02-17T11:11:59.130Z,10.82
2023-02-17T11:14:29.853Z,10.78
2023-02-17T11:17:00.997Z,10.66
2023-02-17T11:19:34.525Z,10.64
2023-02-17T11:22:04.856Z,10.63
2023-02-17T11:24:36.132Z,10.64
2023-02-17T11:27:12.640Z,10.63
2023-02-17T11:29:41.764Z,10.61
2023-02-17T11:32:14.066Z,10.65
2023-02-17T11:34:45.829Z,10.64
2023-02-17T11:37:24.799Z,10.66
2023-02-17T11:39:55.408Z,10.64
2023-02-17T11:42:25.436Z,10.62
2023-02-17T11:44:57.718Z,10.54
2023-02-17T11:47:35.398Z,10.40
2023-02-17T11:50:38.944Z,10.37
2023-02-17T11:53:28.754Z,10.31
2023-02-17T11:56:12.628Z,10.32
2023-02-17T11:59:04.430Z,10.37
2023-02-17T12:01:49.588Z,10.45
2023-02-17T12:04:31.397Z,10.42
2023-02-17T12:07:31.013Z,10.41
2023-02-17T12:10:08.572Z,10.42
2023-02-17T12:13:02.579Z,10.37
2023-02-17T12:15:42.905Z,10.40
2023-02-17T12:18:26.864Z,10.39
2023-02-17T12:21:06.048Z,10.49
2023-02-17T12:24:07.540Z,10.69
2023-02-17T12:26:41.773Z,10.81
2023-02-17T12:29:30.820Z,10.76
2023-02-17T12:32:20.719Z,10.74
2023-02-17T12:34:55.421Z,10.74
2023-02-17T12:37:27.471Z,10.81
2023-02-17T12:40:04.827Z,10.80
2023-02-17T12:42:38.704Z,10.81
2023-02-17T12:45:18.453Z,10.71
2023-02-17T12:47:55.869Z,10.73
2023-02-17T12:50:31.817Z,10.72
2023-02-17T12:53:04.977Z,10.75
2023-02-17T12:55:47.095Z,10.78
2023-02-17T12:58:19.792Z,10.83
2023-02-17T13:00:52.497Z,10.87
2023-02-17T13:03:21.342Z,10.90
2023-02-17T13:06:00.453Z,10.92
2023-02-17T13:08:39.703Z,10.98
2023-02-17T13:11:13.573Z,11.06
2023-02-17T13:13:42.452Z,11.03
2023-02-17T13:16:13.279Z,11.10
2023-02-17T13:18:44.514Z,11.14
2023-02-17T13:21:32.708Z,11.32
2023-02-17T13:24:03.629Z,11.39
2023-02-17T13:26:36.102Z,11.44
2023-02-17T13:29:22.538Z,11.50
2023-02-17T13:31:55.122Z,11.59
2023-02-17T13:34:29.849Z,11.63
2023-02-17T13:37:00.769Z,11.73
2023-02-17T13:39:39.762Z,11.92
2023-02-17T13:42:38.816Z,12.14
2023-02-17T13:45:19.350Z,12.32
2023-02-17T13:47:50.826Z,12.25
2023-02-17T13:50:32.431Z,12.31
2023-02-17T13:53:02.237Z,12.33
2023-02-17T13:55:31.883Z,12.33
2023-02-17T13:58:02.146Z,12.26
2023-02-17T14:00:32.576Z,12.30
2023-02-17T14:03:17.726Z,12.41
2023-02-17T14:05:48.592Z,12.48
2023-02-17T14:08:24.497Z,12.57
2023-02-17T14:10:53.921Z,12.66
2023-02-17T14:13:26.012Z,12.60
2023-02-17T14:15:57.222Z,12.59
2023-02-17T14:18:36.566Z,12.57
2023-02-17T14:21:09.576Z,12.50
2023-02-17T14:23:49.362Z,12.53
2023-02-17T14:26:29.863Z,12.55
2023-02-17T14:29:01.051Z,12.63
2023-02-17T14:31:30.462Z,12.90
2023-02-17T14:34:02.176Z,13.03
2023-02-17T14:36:35.240Z,12.95
2023-02-17T14:39:06.421Z,12.96
2023-02-17T14:41:36.651Z,12.93
2023-02-17T14:44:06.969Z,12.84
2023-02-17T14:46:36.485Z,12.79
2023-02-17T14:49:05.289Z,12.78
2023-02-17T14:51:36.496Z,12.78
2023-02-17T14:54:12.258Z,12.64
2023-02-17T14:56:46.180Z,12.55
2023-02-17T14:59:16.267Z,12.49
2023-02-17T15:01:44.891Z,12.48
2023-02-17T15:04:13.628Z,12.53
2023-02-17T15:06:44.336Z,12.47
2023-02-17T15:09:19.239Z,12.44
2023-02-17T15:11:49.266Z,12.43
2023-02-17T15:14:22.745Z,12.41
2023-02-17T15:16:51.734Z,12.40
2023-02-17T15:19:20.810Z,12.40
2023-02-17T15:21:51.357Z,12.42
2023-02-17T15:24:23.610Z,12.42
2023-02-17T15:26:52.426Z,12.44
2023-02-17T15:29:24.062Z,12.39
2023-02-17T15:31:54.565Z,12.38
2023-02-17T15:34:26.852Z,12.38
2023-02-17T15:36:55.179Z,12.37
2023-02-17T15:39:23.888Z,12.38
2023-02-17T15:41:55.352Z,12.43
2023-02-17T15:44:28.107Z,12.34
2023-02-17T15:46:57.583Z,12.38
2023-02-17T15:49:26.577Z,12.33
2023-02-17T15:51:55.766Z,12.30
2023-02-17T15:54:24.324Z,12.29
2023-02-17T15:56:55.113Z,12.29
2023-02-17T15:59:28.214Z,12.30
2023-02-17T16:01:57.238Z,12.27
2023-02-17T16:04:26.900Z,12.30
2023-02-17T16:06:55.480Z,12.27
2023-02-17T16:09:24.037Z,12.29
2023-02-17T16:11:57.589Z,12.41
2023-02-17T16:14:35.261Z,12.34
2023-02-17T16:17:04.713Z,12.36
2023-02-17T16:19:34.359Z,12.34
2023-02-17T16:22:03.051Z,12.39
2023-02-17T16:24:31.729Z,12.35
2023-02-17T16:27:00.924Z,12.43
2023-02-17T16:29:32.055Z,12.28
2023-02-17T16:32:00.483Z,12.25
2023-02-17T16:34:32.714Z,12.29
2023-02-17T16:37:04.523Z,12.27
2023-02-17T16:39:34.282Z,12.16
2023-02-17T16:42:02.984Z,12.08
2023-02-17T16:44:33.254Z,11.99
2023-02-17T16:47:03.080Z,11.94
2023-02-17T16:49:36.411Z,11.87
2023-02-17T16:52:06.961Z,11.80
2023-02-17T16:54:35.938Z,11.73
2023-02-17T16:57:05.038Z,11.64
2023-02-17T16:59:36.208Z,11.57
2023-02-17T17:02:04.911Z,11.48
2023-02-17T17:04:33.500Z,11.40
2023-02-17T17:07:02.088Z,11.40
2023-02-17T17:09:31.049Z,11.38
2023-02-17T17:12:02.151Z,11.30
2023-02-17T17:14:30.718Z,11.19
2023-02-17T17:17:03.866Z,11.16
2023-02-17T17:19:32.519Z,11.09
2023-02-17T17:22:01.227Z,11.07
2023-02-17T17:24:31.040Z,11.08
2023-02-17T17:27:00.830Z,11.07
2023-02-17T17:29:29.506Z,11.08
2023-02-17T17:31:58.288Z,11.12
2023-02-17T17:34:29.576Z,11.15
2023-02-17T17:36:58.384Z,11.14
2023-02-17T17:39:27.008Z,11.15
2023-02-17T17:41:57.624Z,11.21
2023-02-17T17:44:28.617Z,11.24
2023-02-17T17:46:57.191Z,11.30
2023-02-17T17:49:25.888Z,11.31
2023-02-17T17:51:56.067Z,11.29
2023-02-17T17:54:26.748Z,11.30
2023-02-17T17:56:55.461Z,11.35
2023-02-17T17:59:24.170Z,11.34
2023-02-17T18:01:53.071Z,11.30
2023-02-17T18:04:22.059Z,11.36
2023-02-17T18:06:53.362Z,11.34
2023-02-17T18:09:31.827Z,11.35
2023-02-17T18:12:04.504Z,11.41
2023-02-17T18:14:37.429Z,11.40
2023-02-17T18:17:08.342Z,11.48
2023-02-17T18:19:37.431Z,11.49
2023-02-17T18:22:06.594Z,11.63
2023-02-17T18:24:38.103Z,11.67
2023-02-17T18:27:06.713Z,11.69
2023-02-17T18:29:35.421Z,11.73
2023-02-17T18:32:04.207Z,11.70
2023-02-17T18:34:33.091Z,11.70
2023-02-17T18:37:01.729Z,11.66
2023-02-17T18:39:30.361Z,11.70
2023-02-17T18:42:00.493Z,11.71
2023-02-17T18:44:29.458Z,11.69
2023-02-17T18:46:58.109Z,11.66
2023-02-17T18:49:26.674Z,11.66
2023-02-17T18:51:55.817Z,11.66
2023-02-17T18:54:24.482Z,11.63
2023-02-17T18:56:53.061Z,11.59
2023-02-17T18:59:23.401Z,11.52
2023-02-17T19:01:55.270Z,11.45
2023-02-17T19:04:24.370Z,11.40
2023-02-17T19:06:53.021Z,11.38
2023-02-17T19:09:21.674Z,11.32
2023-02-17T19:11:50.312Z,11.28
2023-02-17T19:14:18.633Z,11.25
2023-02-17T19:16:48.725Z,11.21
2023-02-17T19:19:17.360Z,11.19
2023-02-17T19:21:45.900Z,11.16
2023-02-17T19:24:16.635Z,11.15
2023-02-17T19:26:47.054Z,11.15
2023-02-17T19:29:15.556Z,11.12
2023-02-17T19:31:44.040Z,11.07
2023-02-17T19:34:15.762Z,11.05
2023-02-17T19:36:44.286Z,11.00
2023-02-17T19:39:12.902Z,10.98
2023-02-17T19:41:41.563Z,10.96
2023-02-17T19:44:11.478Z,10.97
2023-02-17T19:46:40.552Z,10.98
2023-02-17T19:49:09.384Z,10.98
2023-02-17T19:51:39.259Z,10.98
2023-02-17T19:54:07.919Z,10.96
2023-02-17T19:56:36.638Z,10.93
2023-02-17T19:59:05.304Z,10.92
2023-02-17T20:01:35.979Z,10.94
2023-02-17T20:04:06.775Z,10.92
2023-02-17T20:06:40.397Z,10.92
2023-02-17T20:09:12.757Z,10.90
2023-02-17T20:11:41.446Z,10.89
2023-02-17T20:14:12.274Z,10.87
2023-02-17T20:16:41.477Z,10.87
2023-02-17T20:19:10.126Z,10.86
2023-02-17T20:21:40.153Z,10.85
2023-02-17T20:24:11.697Z,10.82
2023-02-17T20:26:42.911Z,10.79
2023-02-17T20:29:12.706Z,10.74
2023-02-17T20:31:43.094Z,10.75
2023-02-17T20:34:25.648Z,10.71
2023-02-17T20:36:54.273Z,10.71
2023-02-17T20:39:28.669Z,10.69
2023-02-17T20:41:58.226Z,10.69
2023-02-17T20:44:28.164Z,10.70
2023-02-17T20:46:58.296Z,10.73
2023-02-17T20:49:29.390Z,10.78
2023-02-17T20:51:59.410Z,10.79
2023-02-17T20:54:30.876Z,10.83
2023-02-17T20:57:01.518Z,11.01
2023-02-17T20:59:30.416Z,11.00
2023-02-17T21:02:00.278Z,11.10
2023-02-17T21:04:30.907Z,11.10
2023-02-17T21:07:01.671Z,11.17
2023-02-17T21:09:31.938Z,11.19
2023-02-17T21:12:00.539Z,11.18
2023-02-17T21:14:29.414Z,11.17
2023-02-17T21:16:58.131Z,11.19
2023-02-17T21:19:28.490Z,11.23
2023-02-17T21:21:57.043Z,11.24
2023-02-17T21:24:25.858Z,11.25
2023-02-17T21:26:56.057Z,11.23
2023-02-17T21:29:24.738Z,11.19
2023-02-17T21:31:54.794Z,11.19
2023-02-17T21:34:24.471Z,11.19
2023-02-17T21:36:53.174Z,11.23
2023-02-17T21:39:22.052Z,11.25
2023-02-17T21:41:54.520Z,11.20
2023-02-17T21:44:42.878Z,11.19
2023-02-17T21:47:12.083Z,11.17
2023-02-17T21:49:40.726Z,11.20
2023-02-17T21:52:09.235Z,11.20
2023-02-17T21:54:37.822Z,11.18
2023-02-17T21:57:07.637Z,11.20
2023-02-17T21:59:37.629Z,11.19
2023-02-17T22:02:06.097Z,11.12
2023-02-17T22:04:34.491Z,11.01
2023-02-17T22:07:02.806Z,10.86
2023-02-17T22:09:31.493Z,10.78
2023-02-17T22:11:59.845Z,10.74
2023-02-17T22:14:28.721Z,10.78
2023-02-17T22:16:58.957Z,10.78
2023-02-17T22:19:31.077Z,10.79
2023-02-17T22:22:00.420Z,10.82
2023-02-17T22:24:29.318Z,10.84
2023-02-17T22:26:57.785Z,10.83
2023-02-17T22:29:26.386Z,10.84
2023-02-17T22:31:56.368Z,10.87
2023-02-17T22:34:32.066Z,10.84
2023-02-17T22:37:00.507Z,10.83
2023-02-17T22:39:30.069Z,10.92
2023-02-17T22:41:58.654Z,10.93
2023-02-17T22:44:27.305Z,10.96
2023-02-17T22:46:55.936Z,11.01
2023-02-17T22:49:26.024Z,11.00
2023-02-17T22:51:54.689Z,10.97
2023-02-17T22:54:24.568Z,11.00
2023-02-17T22:56:52.959Z,11.04
2023-02-17T22:59:21.423Z,11.05
2023-02-17T23:01:50.125Z,11.08
2023-02-17T23:04:18.904Z,11.14
2023-02-17T23:06:48.765Z,11.12
2023-02-17T23:09:19.485Z,11.10
2023-02-17T23:11:55.125Z,11.11
2023-02-17T23:14:26.897Z,11.14
2023-02-17T23:16:57.998Z,11.23
2023-02-17T23:19:29.542Z,11.16
2023-02-17T23:22:03.303Z,11.19
2023-02-17T23:24:32.013Z,11.18
2023-02-17T23:27:03.910Z,11.17
2023-02-17T23:29:34.248Z,11.04
2023-02-17T23:32:03.101Z,11.01
2023-02-17T23:34:31.893Z,11.03
2023-02-17T23:37:02.063Z,10.98
2023-02-17T23:39:30.577Z,10.85
2023-02-17T23:41:59.157Z,10.80
2023-02-17T23:44:27.688Z,10.77
2023-02-17T23:46:56.217Z,10.78
2023-02-17T23:49:24.683Z,10.71
2023-02-17T23:51:53.740Z,10.77
2023-02-17T23:54:25.432Z,10.83
2023-02-17T23:56:54.250Z,10.80
2023-02-17T23:59:22.797Z,10.83
